Tropical Cyclones
[Index]
Main Index Home Page Stock Weather Photos Extreme Storms Discussion Storm News and Storm Chasing Reports Tropical Cyclones / Hurricanes / Typhoons Weather Data and Links Wild Fires / Bushfires Weather Observation Techniques Weather Picture Catalogue Tornado Pictures and Reports Stock Video Footage and DVDs for sale
Season 2012-2013 Tropical Cyclone SANDRA Track Map
Season 2012-2013 Summaries: [BoM-AU] [JTWC-AU] [JTWC-SIO] [JTWC-SPAC] [JTWC-SH]
<<- Previous TC | BoM 2012-2013 Season | Next TC ->>

click for intensity scale information  Lat/long Grid: Show Hide

 Date Labels: Show Hide

Bureau of Meteorology Tropical Cyclone Data

Name: SANDRA
Number: 966 / 201213_13

05 Mar 2013 00:00 UTC to 10 Mar 2013 00:00 UTC

    date/time    lat    long    hPa   cat  kts
2013-03-05 00   17.9   149.4   1002         15          
2013-03-05 06   17.6   150.1    999         20          
2013-03-05 12   17.2   151.4    996         25          
2013-03-05 18   17.1   152.4    995    1    25          
2013-03-06 00   17.1   153.4    997         25          
2013-03-06 06   16.9   153.8    996         25          
2013-03-06 12   16.5   153.6    996         25          
2013-03-06 18   16.1   153.7    995    1    25          
2013-03-07 00   16.0   154.9    996         25          
2013-03-07 06   15.5   155.2    995    1    25          
2013-03-07 12   15.1   155.7    995    1    30          
2013-03-07 18   15.0   156.4    995    1    35          
2013-03-08 00   15.0   156.9    995    1    35          
2013-03-08 06   15.1   157.1    992    1    35          
2013-03-08 12   15.2   157.4    994    1    35          
2013-03-08 18   15.1   157.7    983    2    50          
2013-03-09 00   15.3   158.3    985    2    55          
2013-03-09 06   15.5   158.9    981    2    55          
2013-03-09 12   15.5   159.4    971    2    65          
2013-03-09 18   15.7   159.9    963    3    80          
2013-03-10 00   15.9   160.4    958    3    85          
Winds are 10-min average.

Tropical cyclone tracks developed by Michael Bath using data from the Bureau of Meteorology and Google Maps.


[Australian Severe Weather index] [Copyright Notice] [Email Contacts] [Search This Site] [Privacy Policy]
Document: tropical_cyclone_sandra.htm Updated: 29 June 2017